createdAt,value
2018-01-15T00:00:26.482Z,73.14
2018-01-15T00:01:28.945Z,73.03
2018-01-15T00:02:31.432Z,73.06
2018-01-15T00:03:33.897Z,73.03
2018-01-15T00:04:36.372Z,72.94
2018-01-15T00:05:38.834Z,73.08
2018-01-15T00:06:41.316Z,72.85
2018-01-15T00:07:43.780Z,72.98
2018-01-15T00:08:46.241Z,72.94
2018-01-15T00:09:48.724Z,72.81
2018-01-15T00:10:51.208Z,72.89
2018-01-15T00:11:53.695Z,72.99
2018-01-15T00:12:56.176Z,72.94
2018-01-15T00:13:58.642Z,72.84
2018-01-15T00:15:01.123Z,73.15
2018-01-15T00:16:03.631Z,72.97
2018-01-15T00:17:06.111Z,72.76
2018-01-15T00:18:08.586Z,72.88
2018-01-15T00:19:11.108Z,72.72
2018-01-15T00:20:13.587Z,72.96
2018-01-15T00:21:16.055Z,73.02
2018-01-15T00:22:18.520Z,72.90
2018-01-15T00:23:20.973Z,72.74
2018-01-15T00:24:23.446Z,72.96
2018-01-15T00:25:25.926Z,73.16
2018-01-15T00:26:28.492Z,73.29
2018-01-15T00:27:30.962Z,73.02
2018-01-15T00:28:33.443Z,73.20
2018-01-15T00:29:35.906Z,73.29
2018-01-15T00:30:38.366Z,73.41
2018-01-15T00:31:40.861Z,73.21
2018-01-15T00:32:43.346Z,73.04
2018-01-15T00:33:45.839Z,73.09
2018-01-15T00:34:48.305Z,73.20
2018-01-15T00:35:50.827Z,73.30
2018-01-15T00:36:53.312Z,73.25
2018-01-15T00:37:55.788Z,73.12
2018-01-15T00:38:58.283Z,73.22
2018-01-15T00:40:00.761Z,73.08
2018-01-15T00:41:03.252Z,73.08
2018-01-15T00:42:05.739Z,73.27
2018-01-15T00:43:08.217Z,73.04
2018-01-15T00:44:10.690Z,73.08
2018-01-15T00:45:13.153Z,72.95
2018-01-15T00:46:15.632Z,72.88
2018-01-15T00:47:18.121Z,73.02
2018-01-15T00:48:20.590Z,73.12
2018-01-15T00:49:23.066Z,73.14
2018-01-15T00:50:25.544Z,73.32
2018-01-15T00:51:28.016Z,73.04
2018-01-15T00:52:30.491Z,73.01
2018-01-15T00:53:33.016Z,72.87
2018-01-15T00:54:35.494Z,73.20
2018-01-15T00:55:37.968Z,73.18
2018-01-15T00:56:40.431Z,73.47
2018-01-15T00:57:42.915Z,73.38
2018-01-15T00:58:45.405Z,73.03
2018-01-15T00:59:47.872Z,73.00
2018-01-15T01:00:50.352Z,73.05
2018-01-15T01:01:52.814Z,72.85
2018-01-15T01:02:55.290Z,72.91
2018-01-15T01:03:57.793Z,72.73
2018-01-15T01:05:00.272Z,73.06
2018-01-15T01:06:02.738Z,73.05
2018-01-15T01:07:05.197Z,73.28
2018-01-15T01:08:07.661Z,73.58
2018-01-15T01:09:10.160Z,73.35
2018-01-15T01:10:12.626Z,73.23
2018-01-15T01:11:15.108Z,73.24
2018-01-15T01:12:17.585Z,73.37
2018-01-15T01:13:20.052Z,73.13
2018-01-15T01:14:22.572Z,73.30
2018-01-15T01:15:25.030Z,73.44
2018-01-15T01:16:27.507Z,73.45
2018-01-15T01:17:29.979Z,73.19
2018-01-15T01:18:32.479Z,73.29
2018-01-15T01:19:34.961Z,73.34
2018-01-15T01:20:37.436Z,73.41
2018-01-15T01:21:39.912Z,73.43
2018-01-15T01:22:42.396Z,73.75
2018-01-15T01:23:44.867Z,73.77
2018-01-15T01:24:47.371Z,73.98
2018-01-15T01:25:49.848Z,74.02
2018-01-15T01:26:52.376Z,74.14
2018-01-15T01:27:54.868Z,74.03
2018-01-15T01:28:57.326Z,74.05
2018-01-15T01:29:59.825Z,73.94
2018-01-15T01:31:02.320Z,74.49
2018-01-15T01:32:04.791Z,74.23
2018-01-15T01:33:07.266Z,74.17
2018-01-15T01:34:09.742Z,74.14
2018-01-15T01:35:12.228Z,74.31
2018-01-15T01:36:14.694Z,74.53
2018-01-15T01:37:17.166Z,74.54
2018-01-15T01:38:19.638Z,74.49
2018-01-15T01:39:22.130Z,74.53
2018-01-15T01:40:24.621Z,74.52
2018-01-15T01:41:27.077Z,74.39
2018-01-15T01:42:29.555Z,74.46
2018-01-15T01:43:32.013Z,74.49
2018-01-15T01:44:34.571Z,74.29
2018-01-15T01:45:37.061Z,74.44
2018-01-15T01:46:39.518Z,74.52
2018-01-15T01:47:42.004Z,74.48
2018-01-15T01:48:59.349Z,74.42
2018-01-15T01:50:01.836Z,74.36
2018-01-15T01:51:04.335Z,74.17
2018-01-15T01:52:06.816Z,73.99
2018-01-15T01:53:09.284Z,73.91
2018-01-15T01:54:11.742Z,74.08
2018-01-15T01:55:14.210Z,73.98
2018-01-15T01:56:16.709Z,74.16
2018-01-15T01:57:19.183Z,73.78
2018-01-15T01:58:21.668Z,73.89
2018-01-15T01:59:24.132Z,73.92
2018-01-15T02:00:26.617Z,74.14
2018-01-15T02:01:29.118Z,74.17
2018-01-15T02:02:31.596Z,74.11
2018-01-15T02:03:34.062Z,74.03
2018-01-15T02:04:36.530Z,73.91
2018-01-15T02:05:39.007Z,73.99
2018-01-15T02:06:41.485Z,73.80
2018-01-15T02:07:43.984Z,73.72
2018-01-15T02:08:46.442Z,73.72
2018-01-15T02:09:48.915Z,73.74
2018-01-15T02:10:51.390Z,73.90
2018-01-15T02:11:53.893Z,73.79
2018-01-15T02:12:56.354Z,73.64
2018-01-15T02:13:58.831Z,73.58
2018-01-15T02:15:01.308Z,73.21
2018-01-15T02:16:03.787Z,73.46
2018-01-15T02:17:06.269Z,73.46
2018-01-15T02:18:08.745Z,73.54
2018-01-15T02:19:11.202Z,73.40
2018-01-15T02:20:13.676Z,73.43
2018-01-15T02:21:16.168Z,73.39
2018-01-15T02:22:18.662Z,73.46
2018-01-15T02:23:21.118Z,73.41
2018-01-15T02:24:23.599Z,73.30
2018-01-15T02:25:26.087Z,73.26
2018-01-15T02:26:28.563Z,73.11
2018-01-15T02:27:31.064Z,72.90
2018-01-15T02:28:33.553Z,73.20
2018-01-15T02:29:36.018Z,72.92
2018-01-15T02:30:38.496Z,72.96
2018-01-15T02:31:40.965Z,73.34
2018-01-15T02:32:43.468Z,73.18
2018-01-15T02:33:45.942Z,73.21
2018-01-15T02:34:48.398Z,73.05
2018-01-15T02:35:50.861Z,73.06
2018-01-15T02:36:53.340Z,73.08
2018-01-15T02:37:55.842Z,73.23
2018-01-15T02:38:58.335Z,73.09
2018-01-15T02:40:00.819Z,72.99
2018-01-15T02:41:03.312Z,72.97
2018-01-15T02:42:05.788Z,72.73
2018-01-15T02:43:08.378Z,73.02
2018-01-15T02:44:10.895Z,73.61
2018-01-15T02:45:13.384Z,73.29
2018-01-15T02:46:15.851Z,72.95
2018-01-15T02:47:18.318Z,72.76
2018-01-15T02:48:20.809Z,73.00
2018-01-15T02:49:23.277Z,72.90
2018-01-15T02:50:25.756Z,72.86
2018-01-15T02:51:28.217Z,72.82
2018-01-15T02:52:30.678Z,72.52
2018-01-15T02:53:33.179Z,72.64
2018-01-15T02:54:35.709Z,72.74
2018-01-15T02:55:38.188Z,72.79
2018-01-15T02:56:40.650Z,72.95
2018-01-15T02:57:43.119Z,73.08
2018-01-15T02:58:45.605Z,72.85
2018-01-15T02:59:48.084Z,73.16
2018-01-15T03:00:50.549Z,73.12
2018-01-15T03:01:53.028Z,73.41
2018-01-15T03:02:55.590Z,73.27
2018-01-15T03:03:58.092Z,73.06
2018-01-15T03:05:00.559Z,73.11
2018-01-15T03:06:03.059Z,73.26
2018-01-15T03:07:05.528Z,73.17
2018-01-15T03:08:08.049Z,73.05
2018-01-15T03:09:10.520Z,73.14
2018-01-15T03:10:13.009Z,73.14
2018-01-15T03:11:15.492Z,72.83
2018-01-15T03:12:17.973Z,73.21
2018-01-15T03:13:20.436Z,73.15
2018-01-15T03:14:22.947Z,73.02
2018-01-15T03:15:25.414Z,72.99
2018-01-15T03:16:27.882Z,73.01
2018-01-15T03:17:30.350Z,72.99
2018-01-15T03:18:32.823Z,73.02
2018-01-15T03:19:35.305Z,73.00
2018-01-15T03:20:37.789Z,73.07
2018-01-15T03:21:40.247Z,73.04
2018-01-15T03:22:42.722Z,73.03
2018-01-15T03:23:45.241Z,73.01
2018-01-15T03:24:47.741Z,73.11
2018-01-15T03:25:50.233Z,73.06
2018-01-15T03:26:52.708Z,73.07
2018-01-15T03:27:55.187Z,73.15
2018-01-15T03:28:57.654Z,73.02
2018-01-15T03:30:00.157Z,72.94
2018-01-15T03:31:02.654Z,72.81
2018-01-15T03:32:05.118Z,72.67
2018-01-15T03:33:07.621Z,72.82
2018-01-15T03:34:10.108Z,72.99
2018-01-15T03:35:12.585Z,72.94
2018-01-15T03:36:15.063Z,73.33
2018-01-15T03:37:17.525Z,73.11
2018-01-15T03:38:19.986Z,73.09
2018-01-15T03:39:22.467Z,72.97
2018-01-15T03:40:24.942Z,73.17
2018-01-15T03:41:27.406Z,73.04
2018-01-15T03:42:29.893Z,73.06
2018-01-15T03:43:32.383Z,72.89
2018-01-15T03:44:34.864Z,72.88
2018-01-15T03:45:37.392Z,72.80
2018-01-15T03:46:39.876Z,73.09
2018-01-15T03:47:42.354Z,73.03
2018-01-15T03:48:44.818Z,72.69
2018-01-15T03:49:47.282Z,72.69
2018-01-15T03:50:49.760Z,72.89
2018-01-15T03:51:52.218Z,72.88
2018-01-15T03:52:54.685Z,72.80
2018-01-15T03:53:57.161Z,72.96
2018-01-15T03:54:59.622Z,73.43
2018-01-15T03:56:02.102Z,73.22
2018-01-15T03:57:04.566Z,73.21
2018-01-15T03:58:07.037Z,72.78
2018-01-15T03:59:09.522Z,73.06
2018-01-15T04:00:12.001Z,72.86
2018-01-15T04:01:14.478Z,72.86
2018-01-15T04:02:16.971Z,73.03
2018-01-15T04:03:19.442Z,73.01
2018-01-15T04:04:21.923Z,73.16
2018-01-15T04:05:24.396Z,72.84
2018-01-15T04:06:26.927Z,73.30
2018-01-15T04:07:29.414Z,73.32
2018-01-15T04:08:31.892Z,73.16
2018-01-15T04:09:34.356Z,73.16
2018-01-15T04:10:36.820Z,73.10
2018-01-15T04:11:39.328Z,73.29
2018-01-15T04:12:41.787Z,73.37
2018-01-15T04:13:44.264Z,73.10
2018-01-15T04:14:46.741Z,73.18
2018-01-15T04:15:49.226Z,73.26
2018-01-15T04:16:51.753Z,73.29
2018-01-15T04:17:54.215Z,73.31
2018-01-15T04:18:56.678Z,73.06
2018-01-15T04:19:59.143Z,73.08
2018-01-15T04:21:01.610Z,73.34
2018-01-15T04:22:04.090Z,73.10
2018-01-15T04:23:06.553Z,73.10
2018-01-15T04:24:09.018Z,73.28
2018-01-15T04:25:11.495Z,73.08
2018-01-15T04:26:13.957Z,73.44
2018-01-15T04:27:16.456Z,73.19
2018-01-15T04:28:18.953Z,73.23
2018-01-15T04:29:21.414Z,73.49
2018-01-15T04:30:23.920Z,73.29
2018-01-15T04:31:26.440Z,73.00
2018-01-15T04:32:28.930Z,73.31
2018-01-15T04:33:31.407Z,73.25
2018-01-15T04:34:33.884Z,73.33
2018-01-15T04:35:36.346Z,73.50
2018-01-15T04:36:38.834Z,73.62
2018-01-15T04:37:41.322Z,73.55
2018-01-15T04:38:43.798Z,73.55
2018-01-15T04:39:46.268Z,73.66
2018-01-15T04:40:48.730Z,74.13
2018-01-15T04:41:51.209Z,73.73
2018-01-15T04:42:53.721Z,73.61
2018-01-15T04:43:56.192Z,73.69
2018-01-15T04:44:58.673Z,73.63
2018-01-15T04:46:01.137Z,73.69
2018-01-15T04:47:03.628Z,73.77
2018-01-15T04:48:06.127Z,73.51
2018-01-15T04:49:08.586Z,73.55
2018-01-15T04:50:11.060Z,73.63
2018-01-15T04:51:13.658Z,73.90
2018-01-15T04:52:16.160Z,73.70
2018-01-15T04:53:18.653Z,73.59
2018-01-15T04:54:21.124Z,73.73
2018-01-15T04:55:23.589Z,73.80
2018-01-15T04:56:26.051Z,73.89
2018-01-15T04:57:28.536Z,74.13
2018-01-15T04:58:31.058Z,73.89
2018-01-15T04:59:33.580Z,74.12
2018-01-15T05:00:36.046Z,74.27
2018-01-15T05:01:38.534Z,74.27
2018-01-15T05:02:40.998Z,74.32
2018-01-15T05:03:43.496Z,74.73
2018-01-15T05:04:45.958Z,74.98
2018-01-15T05:05:48.428Z,75.14
2018-01-15T05:06:50.905Z,75.19
2018-01-15T05:07:53.384Z,75.15
2018-01-15T05:08:55.870Z,75.14
2018-01-15T05:09:58.333Z,75.47
2018-01-15T05:11:00.793Z,75.56
2018-01-15T05:12:03.268Z,75.65
2018-01-15T05:13:05.743Z,75.80
2018-01-15T05:14:08.230Z,75.60
2018-01-15T05:15:10.705Z,75.73
2018-01-15T05:16:13.162Z,75.79
2018-01-15T05:17:15.640Z,76.12
2018-01-15T05:18:18.115Z,76.27
2018-01-15T05:19:20.635Z,76.22
2018-01-15T05:20:23.103Z,76.15
2018-01-15T05:21:25.582Z,76.17
2018-01-15T05:22:28.062Z,76.18
2018-01-15T05:23:30.540Z,75.90
2018-01-15T05:24:33.017Z,75.94
2018-01-15T05:25:35.482Z,75.85
2018-01-15T05:26:37.953Z,76.03
2018-01-15T05:27:40.433Z,75.95
2018-01-15T05:28:42.901Z,75.96
2018-01-15T05:29:45.384Z,76.09
2018-01-15T05:30:47.837Z,76.16
2018-01-15T05:31:50.298Z,76.25
2018-01-15T05:32:52.788Z,76.21
2018-01-15T05:33:55.273Z,76.37
2018-01-15T05:34:57.754Z,76.60
2018-01-15T05:36:00.289Z,76.47
2018-01-15T05:37:02.783Z,76.62
2018-01-15T05:38:05.249Z,76.66
2018-01-15T05:39:07.756Z,76.86
2018-01-15T05:40:10.272Z,76.81
2018-01-15T05:41:12.746Z,76.77
2018-01-15T05:42:15.224Z,76.79
2018-01-15T05:43:17.683Z,76.92
2018-01-15T05:44:20.156Z,77.21
2018-01-15T05:45:22.641Z,77.06
2018-01-15T05:46:25.121Z,77.06
2018-01-15T05:47:27.630Z,77.24
2018-01-15T05:48:30.104Z,77.17
2018-01-15T05:49:32.570Z,77.29
2018-01-15T05:50:35.064Z,77.32
2018-01-15T05:51:37.553Z,77.21
2018-01-15T05:52:40.030Z,77.35
2018-01-15T05:53:42.493Z,77.23
2018-01-15T05:54:44.958Z,77.35
2018-01-15T05:55:47.456Z,77.44
2018-01-15T05:56:49.928Z,77.64
2018-01-15T05:57:52.392Z,77.59
2018-01-15T05:58:54.855Z,77.51
2018-01-15T05:59:57.355Z,77.46
2018-01-15T06:00:59.876Z,77.32
2018-01-15T06:02:02.341Z,77.49
2018-01-15T06:03:04.968Z,77.52
2018-01-15T06:04:07.451Z,77.52
2018-01-15T06:05:09.905Z,77.66
2018-01-15T06:06:12.393Z,77.80
2018-01-15T06:07:15.034Z,77.91
2018-01-15T06:08:17.514Z,77.79
2018-01-15T06:09:20.022Z,77.50
2018-01-15T06:10:22.498Z,77.60
2018-01-15T06:11:25.000Z,77.74
2018-01-15T06:12:27.466Z,77.71
2018-01-15T06:13:29.944Z,77.68
2018-01-15T06:14:32.433Z,77.65
2018-01-15T06:15:34.894Z,77.54
2018-01-15T06:16:37.395Z,77.59
2018-01-15T06:17:40.266Z,77.65
2018-01-15T06:18:42.755Z,77.73
2018-01-15T06:19:45.218Z,77.55
2018-01-15T06:20:47.700Z,77.58
2018-01-15T06:21:50.181Z,77.68
2018-01-15T06:22:52.646Z,77.97
2018-01-15T06:23:55.113Z,78.07
2018-01-15T06:24:57.578Z,78.01
2018-01-15T06:26:00.072Z,77.92
2018-01-15T06:27:02.565Z,78.13
2018-01-15T06:28:05.032Z,78.11
2018-01-15T06:29:07.519Z,78.28
2018-01-15T06:30:09.999Z,78.31
2018-01-15T06:31:12.478Z,78.44
2018-01-15T06:32:14.975Z,78.35
2018-01-15T06:33:17.461Z,78.29
2018-01-15T06:34:19.926Z,78.19
2018-01-15T06:35:22.410Z,78.42
2018-01-15T06:36:24.946Z,78.36
2018-01-15T06:37:27.454Z,78.24
2018-01-15T06:38:29.950Z,78.30
2018-01-15T06:39:32.433Z,78.27
2018-01-15T06:40:34.894Z,78.21
2018-01-15T06:41:37.355Z,78.19
2018-01-15T06:42:40.138Z,78.35
2018-01-15T06:43:42.780Z,78.18
2018-01-15T06:44:45.209Z,78.04
2018-01-15T06:45:47.681Z,78.21
2018-01-15T06:46:50.149Z,78.29
2018-01-15T06:47:52.645Z,78.31
2018-01-15T06:48:55.129Z,78.47
2018-01-15T06:49:57.628Z,78.47
2018-01-15T06:51:00.104Z,78.57
2018-01-15T06:52:02.596Z,78.68
2018-01-15T06:53:05.273Z,78.69
2018-01-15T06:54:07.767Z,78.52
2018-01-15T06:55:10.239Z,78.83
2018-01-15T06:56:12.717Z,78.46
2018-01-15T06:57:15.188Z,81.93
2018-01-15T06:58:17.679Z,77.42
2018-01-15T06:59:20.159Z,78.01
2018-01-15T07:00:22.701Z,77.98
2018-01-15T07:01:25.160Z,77.93
2018-01-15T07:02:27.626Z,77.47
2018-01-15T07:03:30.120Z,77.49
2018-01-15T07:04:32.598Z,78.14
2018-01-15T07:05:35.072Z,78.20
2018-01-15T07:06:37.529Z,78.28
2018-01-15T07:07:40.004Z,78.16
2018-01-15T07:08:42.495Z,78.49
2018-01-15T07:09:45.028Z,78.70
2018-01-15T07:10:47.485Z,78.83
2018-01-15T07:11:49.942Z,79.04
2018-01-15T07:12:52.402Z,78.50
2018-01-15T07:13:55.244Z,78.29
2018-01-15T07:14:58.135Z,77.91
2018-01-15T07:16:00.957Z,78.25
2018-01-15T07:17:03.566Z,78.50
2018-01-15T07:18:06.043Z,78.78
2018-01-15T07:19:08.512Z,78.73
2018-01-15T07:20:10.970Z,78.85
2018-01-15T07:21:13.425Z,78.91
2018-01-15T07:22:15.902Z,78.70
2018-01-15T07:23:18.357Z,78.70
2018-01-15T07:24:20.825Z,78.23
2018-01-15T07:25:23.312Z,78.47
2018-01-15T07:26:25.794Z,78.35
2018-01-15T07:27:28.253Z,78.93
2018-01-15T07:28:30.723Z,78.42
2018-01-15T07:29:33.193Z,78.77
2018-01-15T07:30:35.654Z,78.81
2018-01-15T07:31:38.117Z,78.95
2018-01-15T07:32:40.574Z,79.04
2018-01-15T07:33:43.045Z,78.91
2018-01-15T07:34:45.509Z,79.05
2018-01-15T07:35:47.984Z,79.10
2018-01-15T07:36:50.465Z,79.16
2018-01-15T07:37:52.936Z,79.21
2018-01-15T07:38:55.452Z,79.21
2018-01-15T07:39:57.913Z,79.16
2018-01-15T07:41:00.381Z,79.15
2018-01-15T07:42:02.839Z,79.25
2018-01-15T07:43:05.316Z,79.36
2018-01-15T07:44:07.769Z,79.04
2018-01-15T07:45:10.264Z,79.04
2018-01-15T07:46:12.767Z,79.05
2018-01-15T07:47:15.233Z,79.04
2018-01-15T07:48:17.707Z,79.22
2018-01-15T07:49:20.180Z,79.39
2018-01-15T07:50:22.700Z,78.96
2018-01-15T07:51:25.198Z,79.05
2018-01-15T07:52:27.711Z,79.05
2018-01-15T07:53:30.165Z,78.89
2018-01-15T07:54:32.632Z,78.79
2018-01-15T07:55:35.170Z,78.87
2018-01-15T07:56:37.656Z,78.86
2018-01-15T07:57:40.308Z,78.92
2018-01-15T07:58:42.784Z,78.81
2018-01-15T07:59:45.292Z,79.00
2018-01-15T08:00:47.767Z,78.87
2018-01-15T08:01:50.240Z,78.69
2018-01-15T08:02:52.697Z,78.68
2018-01-15T08:03:55.174Z,78.62
2018-01-15T08:04:57.682Z,78.46
2018-01-15T08:06:00.142Z,78.48
2018-01-15T08:07:02.597Z,78.53
2018-01-15T08:08:05.068Z,78.36
2018-01-15T08:09:07.568Z,78.52
2018-01-15T08:10:10.050Z,78.40
2018-01-15T08:11:12.506Z,78.32
2018-01-15T08:12:14.978Z,78.39
2018-01-15T08:13:17.436Z,78.35
2018-01-15T08:14:19.942Z,78.14
2018-01-15T08:15:22.448Z,78.19
2018-01-15T08:16:24.911Z,78.42
2018-01-15T08:17:27.383Z,78.41
2018-01-15T08:18:29.860Z,78.45
2018-01-15T08:19:32.317Z,78.29
2018-01-15T08:20:34.812Z,78.30
2018-01-15T08:21:37.279Z,78.16
2018-01-15T08:22:39.733Z,78.24
2018-01-15T08:23:42.195Z,78.50
2018-01-15T08:24:44.650Z,78.42
2018-01-15T08:25:47.130Z,78.22
2018-01-15T08:26:49.590Z,78.30
2018-01-15T08:27:52.068Z,78.38
2018-01-15T08:28:54.526Z,78.35
2018-01-15T08:29:56.986Z,78.26
2018-01-15T08:30:59.486Z,78.32
2018-01-15T08:32:01.950Z,78.34
2018-01-15T08:33:04.468Z,78.20
2018-01-15T08:34:06.960Z,78.22
2018-01-15T08:35:09.456Z,78.14
2018-01-15T08:36:11.942Z,78.16
2018-01-15T08:37:14.410Z,78.09
2018-01-15T08:38:16.870Z,78.28
2018-01-15T08:39:19.334Z,78.42
2018-01-15T08:40:21.801Z,78.29
2018-01-15T08:41:24.275Z,78.40
2018-01-15T08:42:26.748Z,78.23
2018-01-15T08:43:29.225Z,78.23
2018-01-15T08:44:31.696Z,78.36
2018-01-15T08:45:34.172Z,78.23
2018-01-15T08:46:36.667Z,78.25
2018-01-15T08:47:39.130Z,78.29
2018-01-15T08:48:41.603Z,78.41
2018-01-15T08:49:44.068Z,78.35
2018-01-15T08:50:46.550Z,78.15
2018-01-15T08:51:49.034Z,78.07
2018-01-15T08:52:51.490Z,78.07
2018-01-15T08:53:53.959Z,78.27
2018-01-15T08:54:56.418Z,78.27
2018-01-15T08:55:58.904Z,78.19
2018-01-15T08:57:01.402Z,78.21
2018-01-15T08:58:03.876Z,78.13
2018-01-15T08:59:06.351Z,77.83
2018-01-15T09:00:08.814Z,77.97
2018-01-15T09:01:11.327Z,77.81
2018-01-15T09:02:13.861Z,77.78
2018-01-15T09:03:16.319Z,77.78
2018-01-15T09:04:18.778Z,77.78
2018-01-15T09:05:21.234Z,77.38
2018-01-15T09:06:23.685Z,77.48
2018-01-15T09:07:26.162Z,77.42
2018-01-15T09:08:28.625Z,77.36
2018-01-15T09:09:31.100Z,77.16
2018-01-15T09:10:33.557Z,77.46
2018-01-15T09:11:36.035Z,77.20
2018-01-15T09:12:38.513Z,76.89
2018-01-15T09:13:40.993Z,76.88
2018-01-15T09:14:43.449Z,76.99
2018-01-15T09:15:45.917Z,76.90
2018-01-15T09:16:48.374Z,76.82
2018-01-15T09:17:50.853Z,76.60
2018-01-15T09:18:53.310Z,76.52
2018-01-15T09:19:55.774Z,76.50
2018-01-15T09:20:58.230Z,76.75
2018-01-15T09:22:00.692Z,76.79
2018-01-15T09:23:03.217Z,76.70
2018-01-15T09:24:05.680Z,76.68
2018-01-15T09:25:08.158Z,76.70
2018-01-15T09:26:10.622Z,76.37
2018-01-15T09:27:13.094Z,76.31
2018-01-15T09:28:15.574Z,76.39
2018-01-15T09:29:18.044Z,76.25
2018-01-15T09:30:20.526Z,76.20
2018-01-15T09:31:22.998Z,76.23
2018-01-15T09:32:25.478Z,76.25
2018-01-15T09:33:27.981Z,75.72
2018-01-15T09:34:30.452Z,75.39
2018-01-15T09:35:32.940Z,75.24
2018-01-15T09:36:35.407Z,75.61
2018-01-15T09:37:37.884Z,75.60
2018-01-15T09:38:40.394Z,75.34
2018-01-15T09:39:42.882Z,75.20
2018-01-15T09:40:45.356Z,74.76
2018-01-15T09:41:47.828Z,74.19
2018-01-15T09:42:50.308Z,74.36
2018-01-15T09:43:52.812Z,74.75
2018-01-15T09:44:55.286Z,74.34
2018-01-15T09:45:57.748Z,73.88
2018-01-15T09:47:00.220Z,74.35
2018-01-15T09:48:02.693Z,74.99
2018-01-15T09:49:05.190Z,74.89
2018-01-15T09:50:07.664Z,74.50
2018-01-15T09:51:10.153Z,74.79
2018-01-15T09:52:12.614Z,74.74
2018-01-15T09:53:15.069Z,74.84
2018-01-15T09:54:17.560Z,74.84
2018-01-15T09:55:20.018Z,74.66
2018-01-15T09:56:22.492Z,74.90
2018-01-15T09:57:24.960Z,74.86
2018-01-15T09:58:27.438Z,74.93
2018-01-15T09:59:29.917Z,74.74
2018-01-15T10:00:32.374Z,74.44
2018-01-15T10:01:34.833Z,74.89
2018-01-15T10:02:37.300Z,74.54
2018-01-15T10:03:39.762Z,74.45
2018-01-15T10:04:42.247Z,74.81
2018-01-15T10:05:44.724Z,74.25
2018-01-15T10:06:47.182Z,74.33
2018-01-15T10:07:49.656Z,74.43
2018-01-15T10:08:52.126Z,74.29
2018-01-15T10:09:54.610Z,74.75
2018-01-15T10:10:57.082Z,74.96
2018-01-15T10:11:59.551Z,74.67
2018-01-15T10:13:02.013Z,74.59
2018-01-15T10:14:04.608Z,74.49
2018-01-15T10:15:07.101Z,74.31
2018-01-15T10:16:09.558Z,74.25
2018-01-15T10:17:12.036Z,74.20
2018-01-15T10:18:14.500Z,73.39
2018-01-15T10:19:16.981Z,73.37
2018-01-15T10:20:19.458Z,73.19
2018-01-15T10:21:21.928Z,72.92
2018-01-15T10:22:24.412Z,72.29
2018-01-15T10:23:26.886Z,72.55
2018-01-15T10:24:29.350Z,72.82
2018-01-15T10:25:31.848Z,72.96
2018-01-15T10:26:34.306Z,73.01
2018-01-15T10:27:36.784Z,72.58
2018-01-15T10:28:39.237Z,72.48
2018-01-15T10:29:41.717Z,72.56
2018-01-15T10:30:44.202Z,72.02
2018-01-15T10:31:46.662Z,72.06
2018-01-15T10:32:49.131Z,72.01
2018-01-15T10:33:51.586Z,71.68
2018-01-15T10:34:54.072Z,72.53
2018-01-15T10:35:56.596Z,72.91
2018-01-15T10:36:59.068Z,72.68
2018-01-15T10:38:01.600Z,72.93
2018-01-15T10:39:04.088Z,72.92
2018-01-15T10:40:06.562Z,72.72
2018-01-15T10:41:09.078Z,72.64
2018-01-15T10:42:11.556Z,72.86
2018-01-15T10:43:14.006Z,73.15
2018-01-15T10:44:16.484Z,73.23
2018-01-15T10:45:18.937Z,72.95
2018-01-15T10:46:21.410Z,73.49
2018-01-15T10:47:23.863Z,73.34
2018-01-15T10:48:26.338Z,73.46
2018-01-15T10:49:28.807Z,73.72
2018-01-15T10:50:31.258Z,73.39
2018-01-15T10:51:33.731Z,73.39
2018-01-15T10:52:36.188Z,73.13
2018-01-15T10:53:38.664Z,72.77
2018-01-15T10:54:41.138Z,72.84
2018-01-15T10:55:43.591Z,72.42
2018-01-15T10:56:46.076Z,72.49
2018-01-15T10:57:48.607Z,72.24
2018-01-15T10:58:51.085Z,72.33
2018-01-15T10:59:53.530Z,72.76
2018-01-15T11:00:55.994Z,73.36
2018-01-15T11:01:58.488Z,73.81
2018-01-15T11:03:00.934Z,73.67
2018-01-15T11:04:03.386Z,73.79
2018-01-15T11:05:05.868Z,73.70
2018-01-15T11:06:08.330Z,73.64
2018-01-15T11:07:10.813Z,73.83
2018-01-15T11:08:13.322Z,73.34
2018-01-15T11:09:15.800Z,73.07
2018-01-15T11:10:18.263Z,72.76
2018-01-15T11:11:20.817Z,72.96
2018-01-15T11:12:23.303Z,72.70
2018-01-15T11:13:25.804Z,72.72
2018-01-15T11:14:28.263Z,72.70
2018-01-15T11:15:30.763Z,72.77
2018-01-15T11:16:33.234Z,73.39
2018-01-15T11:17:35.724Z,73.09
2018-01-15T11:18:38.200Z,73.35
2018-01-15T11:19:40.655Z,73.09
2018-01-15T11:20:43.125Z,73.23
2018-01-15T11:21:45.645Z,73.16
2018-01-15T11:22:48.152Z,73.85
2018-01-15T11:23:50.605Z,73.96
2018-01-15T11:24:53.076Z,74.01
2018-01-15T11:25:55.548Z,73.69
2018-01-15T11:26:58.024Z,73.98
2018-01-15T11:28:00.512Z,74.30
2018-01-15T11:29:02.976Z,74.14
2018-01-15T11:30:05.511Z,73.97
2018-01-15T11:31:07.986Z,73.94
2018-01-15T11:32:10.456Z,74.29
2018-01-15T11:33:12.929Z,74.42
2018-01-15T11:34:15.397Z,74.35
2018-01-15T11:35:17.850Z,74.55
2018-01-15T11:36:20.317Z,74.54
2018-01-15T11:37:22.774Z,74.84
2018-01-15T11:38:25.280Z,74.90
2018-01-15T11:39:27.746Z,74.89
2018-01-15T11:40:30.220Z,74.93
2018-01-15T11:41:32.690Z,75.07
2018-01-15T11:42:35.159Z,75.09
2018-01-15T11:43:37.664Z,75.42
2018-01-15T11:44:40.137Z,75.64
2018-01-15T11:45:42.619Z,75.93
2018-01-15T11:46:45.094Z,75.64
2018-01-15T11:47:47.549Z,75.80
2018-01-15T11:48:50.053Z,76.12
2018-01-15T11:49:52.525Z,75.88
2018-01-15T11:50:54.985Z,75.75
2018-01-15T11:51:57.451Z,75.70
2018-01-15T11:52:59.910Z,76.00
2018-01-15T11:54:02.401Z,76.15
2018-01-15T11:55:04.854Z,75.81
2018-01-15T11:56:07.324Z,75.81
2018-01-15T11:57:09.773Z,75.87
2018-01-15T11:58:12.226Z,76.04
2018-01-15T11:59:14.698Z,75.93
2018-01-15T12:00:17.155Z,75.94
2018-01-15T12:01:19.628Z,75.98
2018-01-15T12:02:22.100Z,75.76
2018-01-15T12:03:24.584Z,75.89
2018-01-15T12:04:27.062Z,75.96
2018-01-15T12:05:29.514Z,75.87
2018-01-15T12:06:31.980Z,76.13
2018-01-15T12:07:34.453Z,75.94
2018-01-15T12:08:36.922Z,75.98
2018-01-15T12:09:39.408Z,76.02
2018-01-15T12:10:41.862Z,75.95
2018-01-15T12:11:44.319Z,75.99
2018-01-15T12:12:46.792Z,75.91
2018-01-15T12:13:49.260Z,76.24
2018-01-15T12:14:51.738Z,76.30
2018-01-15T12:15:54.207Z,76.10
2018-01-15T12:16:56.662Z,76.21
2018-01-15T12:17:59.132Z,76.04
2018-01-15T12:19:01.585Z,76.29
2018-01-15T12:20:04.080Z,76.00
2018-01-15T12:21:06.543Z,76.05
2018-01-15T12:22:09.025Z,76.07
2018-01-15T12:23:11.499Z,75.88
2018-01-15T12:24:13.968Z,76.10
2018-01-15T12:25:16.456Z,76.05
2018-01-15T12:26:18.935Z,75.84
2018-01-15T12:27:21.431Z,76.04
2018-01-15T12:28:23.899Z,76.07
2018-01-15T12:29:26.369Z,76.28
2018-01-15T12:30:28.864Z,76.93
2018-01-15T12:31:31.340Z,76.53
2018-01-15T12:32:33.789Z,76.94
2018-01-15T12:33:36.273Z,76.66
2018-01-15T12:34:38.742Z,77.25
2018-01-15T12:35:41.236Z,77.50
2018-01-15T12:36:43.689Z,77.62
2018-01-15T12:37:46.160Z,77.75
2018-01-15T12:38:48.632Z,77.89
2018-01-15T12:39:51.082Z,77.80
2018-01-15T12:40:53.569Z,77.82
2018-01-15T12:41:56.043Z,78.04
2018-01-15T12:42:58.507Z,78.07
2018-01-15T12:44:00.978Z,78.16
2018-01-15T12:45:03.448Z,78.21
2018-01-15T12:46:05.939Z,78.21
2018-01-15T12:47:08.398Z,78.30
2018-01-15T12:48:10.860Z,78.34
2018-01-15T12:49:13.306Z,78.43
2018-01-15T12:50:15.791Z,77.98
2018-01-15T12:51:18.265Z,78.05
2018-01-15T12:52:20.743Z,78.21
2018-01-15T12:53:23.236Z,78.03
2018-01-15T12:54:25.708Z,77.93
2018-01-15T12:55:28.171Z,77.59
2018-01-15T12:56:30.648Z,77.31
2018-01-15T12:57:33.125Z,77.60
2018-01-15T12:58:35.598Z,77.14
2018-01-15T12:59:38.079Z,76.97
2018-01-15T13:00:40.531Z,76.95
2018-01-15T13:01:43.036Z,76.94
2018-01-15T13:02:45.487Z,76.40
2018-01-15T13:03:47.958Z,76.26
2018-01-15T13:04:50.413Z,76.50
2018-01-15T13:05:52.871Z,76.44
2018-01-15T13:06:57.141Z,76.31
2018-01-15T13:08:15.570Z,76.38
2018-01-15T13:09:18.070Z,76.80
2018-01-15T13:10:20.524Z,76.54
2018-01-15T13:11:22.994Z,76.78
2018-01-15T13:12:25.459Z,76.67
2018-01-15T13:13:27.926Z,76.74
2018-01-15T13:14:30.403Z,76.74
2018-01-15T13:15:32.902Z,76.87
2018-01-15T13:16:35.395Z,76.61
2018-01-15T13:17:37.855Z,77.16
2018-01-15T13:18:40.322Z,77.27
2018-01-15T13:19:42.797Z,76.39
2018-01-15T13:20:45.264Z,77.29
2018-01-15T13:21:47.727Z,78.05
2018-01-15T13:22:50.173Z,78.19
2018-01-15T13:23:52.635Z,78.43
2018-01-15T13:24:55.112Z,78.55